Time;durP1;ratioP1;P1;durP2;ratioP2;P2;SDS_P1;SDS_P2;PMS_P1;PMS_P2;Temp;Humidity;BMP_temperature;BMP_pressure;BME280_temperature;BME280_humidity;BME280_pressure;Samples;Min_cycle;Max_cycle;Signal;HPM_P1;HPM_P2
2023/03/31 00:00:59;;;;;;;;;;;;;;;6.99;89.29;99184.44;5093901;28;19920;-66
2023/03/31 00:03:28;;;;;;;;;;;;;;;6.95;89.06;99182.72;5094299;28;19969;-66
2023/03/31 00:05:57;;;;;;;;;;;;;;;6.90;89.21;99175.09;5094245;28;19920;-66
2023/03/31 00:08:28;;;;;;;;;;;;;;;6.88;89.32;99186.06;5093881;28;19920;-66
2023/03/31 00:10:59;;;;;;;;;;;;;;;6.94;88.89;99183.56;5093907;28;19955;-66
2023/03/31 00:13:28;;;;;;;;;;;;;;;6.95;88.93;99177.66;5094129;28;19973;-66
2023/03/31 00:15:57;;;;;;;;;;;;;;;7.01;89.38;99180.22;5093976;28;19924;-66
2023/03/31 00:18:25;;;;;;;;;;;;;;;7.02;89.37;99175.16;5094020;28;19928;-66
2023/03/31 00:20:56;;;;;;;;;;;;;;;7.00;89.44;99176.00;5093703;28;19920;-66
2023/03/31 00:23:28;;;;;;;;;;;;;;;6.96;89.42;99164.16;5093780;28;19923;-66
2023/03/31 00:25:57;;;;;;;;;;;;;;;6.87;89.21;99169.16;5093999;28;19930;-66
2023/03/31 00:28:25;;;;;;;;;;;;;;;6.75;89.30;99163.19;5093624;28;20001;-66
2023/03/31 00:30:54;;;;;;;;;;;;;;;6.69;89.40;99160.59;5092479;28;19943;-66
2023/03/31 00:33:22;;;;;;;;;;;;;;;6.67;89.45;99156.38;5093581;28;19920;-66
2023/03/31 00:35:51;;;;;;;;;;;;;;;6.61;89.36;99164.78;5093786;28;20298;-66
2023/03/31 00:38:20;;;;;;;;;;;;;;;6.45;89.18;99155.38;5093488;28;19931;-66
2023/03/31 00:40:51;;;;;;;;;;;;;;;6.43;89.20;99162.09;5093849;28;19924;-66
2023/03/31 00:43:29;;;;;;;;;;;;;;;6.34;89.10;99156.97;5092359;28;20397;-66
2023/03/31 00:46:16;;;;;;;;;;;;;;;6.30;89.01;99160.34;5093870;28;19926;-66
2023/03/31 00:48:49;;;;;;;;;;;;;;;6.29;88.84;99158.63;5093583;28;19927;-66
2023/03/31 00:51:18;;;;;;;;;;;;;;;6.27;88.25;99165.38;5093385;28;19965;-66
2023/03/31 00:53:50;;;;;;;;;;;;;;;6.29;88.41;99162.84;5093426;28;19999;-66
2023/03/31 00:56:21;;;;;;;;;;;;;;;6.37;88.43;99161.22;5093672;28;20274;-66
2023/03/31 00:58:49;;;;;;;;;;;;;;;6.34;88.59;99161.19;5093413;28;19920;-66
2023/03/31 01:01:20;;;;;;;;;;;;;;;6.33;88.49;99160.38;5093184;28;19927;-66
2023/03/31 01:03:51;;;;;;;;;;;;;;;6.34;88.29;99156.97;5095526;28;19920;-66
2023/03/31 01:06:20;;;;;;;;;;;;;;;6.36;88.00;99155.28;5097080;28;19920;-66
2023/03/31 01:08:49;;;;;;;;;;;;;;;6.34;88.60;99141.78;5095808;28;19923;-66
2023/03/31 01:11:21;;;;;;;;;;;;;;;6.26;88.10;99142.56;5096962;28;19926;-66
2023/03/31 01:13:51;;;;;;;;;;;;;;;6.21;88.37;99134.94;5096980;28;19921;-66
2023/03/31 01:16:20;;;;;;;;;;;;;;;6.14;88.41;99132.34;5096780;28;19920;-66
2023/03/31 01:18:49;;;;;;;;;;;;;;;6.06;88.30;99124.66;5096765;28;19943;-66
2023/03/31 01:21:38;;;;;;;;;;;;;;;6.06;88.40;99125.53;5096661;28;19927;-66
2023/03/31 01:24:18;;;;;;;;;;;;;;;6.05;88.70;99128.03;5096744;28;20003;-66
2023/03/31 01:26:57;;;;;;;;;;;;;;;6.01;87.98;99131.38;5096925;28;19920;-66
2023/03/31 01:29:42;;;;;;;;;;;;;;;5.98;88.45;99121.22;5096511;28;19920;-66
2023/03/31 01:32:21;;;;;;;;;;;;;;;5.94;88.48;99109.38;5096707;28;20028;-67
2023/03/31 01:35:07;;;;;;;;;;;;;;;5.93;88.25;99102.59;5096816;28;19920;-66
2023/03/31 01:37:50;;;;;;;;;;;;;;;5.85;88.11;99099.16;5089830;28;20345;-66
2023/03/31 01:40:25;;;;;;;;;;;;;;;5.81;88.21;99097.38;5096411;28;19926;-66
2023/03/31 01:42:57;;;;;;;;;;;;;;;5.71;88.10;99100.72;5096308;28;20358;-66
2023/03/31 01:45:36;;;;;;;;;;;;;;;5.63;88.04;99087.97;5096573;28;20411;-66
2023/03/31 01:48:11;;;;;;;;;;;;;;;5.68;88.15;99085.47;5095098;28;19920;-66
2023/03/31 01:50:44;;;;;;;;;;;;;;;5.61;88.00;99093.84;5096512;28;20281;-66
2023/03/31 01:53:17;;;;;;;;;;;;;;;5.56;88.05;99090.44;5096387;28;20270;-66
2023/03/31 01:55:54;;;;;;;;;;;;;;;5.59;88.05;99098.06;5096070;28;19927;-66
2023/03/31 01:58:25;;;;;;;;;;;;;;;5.61;88.11;99103.97;5096288;28;19963;-66
2023/03/31 02:01:00;;;;;;;;;;;;;;;5.63;88.26;99107.38;5095972;28;19920;-66
2023/03/31 02:03:33;;;;;;;;;;;;;;;5.59;88.07;99105.66;5094673;28;19920;-67
2023/03/31 02:06:08;;;;;;;;;;;;;;;5.58;87.86;99106.47;5094721;28;20422;-66
2023/03/31 02:08:40;;;;;;;;;;;;;;;5.56;87.96;99103.09;5095841;28;20022;-66
2023/03/31 02:11:10;;;;;;;;;;;;;;;5.62;88.15;99101.44;5094654;28;20028;-66
2023/03/31 02:13:40;;;;;;;;;;;;;;;5.72;88.19;99090.56;5094886;28;19919;-67
2023/03/31 02:16:13;;;;;;;;;;;;;;;5.74;87.89;99090.59;5095658;28;19927;-67
2023/03/31 02:18:44;;;;;;;;;;;;;;;5.73;88.25;99099.03;5095554;28;19924;-66
2023/03/31 02:21:13;;;;;;;;;;;;;;;5.74;88.26;99100.72;5094384;28;19927;-66
2023/03/31 02:23:44;;;;;;;;;;;;;;;5.69;88.10;99094.75;5095722;28;20309;-67
2023/03/31 02:26:16;;;;;;;;;;;;;;;5.62;88.19;99101.44;5095431;28;19963;-66
2023/03/31 02:28:45;;;;;;;;;;;;;;;5.58;88.16;99109.84;5094023;28;19927;-66
2023/03/31 02:31:18;;;;;;;;;;;;;;;5.55;88.15;99103.91;5094481;28;19920;-66
2023/03/31 02:33:47;;;;;;;;;;;;;;;5.53;88.36;99105.56;5094457;28;19959;-66
2023/03/31 02:36:16;;;;;;;;;;;;;;;5.54;88.18;99098.00;5095253;28;19920;-66
2023/03/31 02:38:48;;;;;;;;;;;;;;;5.63;88.26;99107.38;5095106;28;19942;-67
2023/03/31 02:41:18;;;;;;;;;;;;;;;5.68;88.42;99108.25;5094305;28;19924;-66
2023/03/31 02:43:46;;;;;;;;;;;;;;;5.66;88.40;99113.31;5094905;28;19965;-66
2023/03/31 02:46:15;;;;;;;;;;;;;;;5.68;88.44;99108.25;5095341;28;20002;-66
2023/03/31 02:48:44;;;;;;;;;;;;;;;5.68;88.36;99115.84;5094090;28;19943;-67
2023/03/31 02:51:23;;;;;;;;;;;;;;;5.62;88.23;99120.84;5093785;28;19951;-66
2023/03/31 02:54:06;;;;;;;;;;;;;;;5.58;88.56;99119.13;5094160;28;19931;-67
2023/03/31 02:57:00;;;;;;;;;;;;;;;5.64;88.74;99109.91;5094838;28;20370;-67
2023/03/31 02:59:39;;;;;;;;;;;;;;;5.78;88.56;99110.06;5094856;28;20458;-67
2023/03/31 03:02:13;;;;;;;;;;;;;;;5.82;88.61;99109.22;5094801;28;19927;-67
2023/03/31 03:04:54;;;;;;;;;;;;;;;5.91;88.80;99104.28;5095064;28;19924;-67
2023/03/31 03:07:25;;;;;;;;;;;;;;;6.00;88.89;99104.34;5093856;28;20027;-67
2023/03/31 03:10:00;;;;;;;;;;;;;;;6.05;89.06;99093.41;5095365;28;19920;-67
2023/03/31 03:12:34;;;;;;;;;;;;;;;6.10;88.94;99095.97;5094113;28;19969;-66
2023/03/31 03:15:05;;;;;;;;;;;;;;;6.15;89.46;99085.88;5094617;28;19920;-66
2023/03/31 03:17:38;;;;;;;;;;;;;;;6.12;89.59;99094.31;5094658;28;20354;-67
2023/03/31 03:20:08;;;;;;;;;;;;;;;6.13;89.65;99090.94;5094857;28;19959;-66
2023/03/31 03:22:37;;;;;;;;;;;;;;;6.16;89.96;99095.19;5094459;28;19924;-66
2023/03/31 03:25:08;;;;;;;;;;;;;;;6.14;89.90;99092.66;5094677;28;20258;-66
2023/03/31 03:27:38;;;;;;;;;;;;;;;6.08;89.66;99092.59;5094618;28;19920;-67
2023/03/31 03:30:08;;;;;;;;;;;;;;;5.95;90.18;99088.28;5094213;28;20037;-67
2023/03/31 03:32:37;;;;;;;;;;;;;;;5.93;90.48;99087.41;5094588;28;19923;-67
2023/03/31 03:35:06;;;;;;;;;;;;;;;5.90;90.58;99089.94;5094573;28;19965;-66
2023/03/31 03:37:35;;;;;;;;;;;;;;;5.87;90.94;99093.28;5094340;28;19923;-66
2023/03/31 03:40:04;;;;;;;;;;;;;;;5.89;90.81;99096.69;5094423;28;20320;-67
2023/03/31 03:42:33;;;;;;;;;;;;;;;5.91;91.10;99095.00;5094570;28;19924;-67
2023/03/31 03:45:03;;;;;;;;;;;;;;;5.99;91.38;99092.53;5094105;28;19963;-67
2023/03/31 03:47:32;;;;;;;;;;;;;;;6.03;91.80;99091.72;5094398;28;19926;-67
2023/03/31 03:50:00;;;;;;;;;;;;;;;6.07;91.20;99085.81;5093993;28;19970;-66
2023/03/31 03:52:29;;;;;;;;;;;;;;;6.09;91.51;99081.63;5094273;28;19920;-66
2023/03/31 03:54:57;;;;;;;;;;;;;;;6.15;91.64;99093.47;5093994;28;19930;-67
2023/03/31 03:57:26;;;;;;;;;;;;;;;6.15;91.80;99094.34;5093887;28;20381;-66
2023/03/31 03:59:54;;;;;;;;;;;;;;;6.16;91.46;99088.44;5093871;28;20366;-67
2023/03/31 04:02:27;;;;;;;;;;;;;;;6.18;91.57;99094.38;5093833;28;19920;-66
2023/03/31 04:04:56;;;;;;;;;;;;;;;6.19;91.39;99085.91;5093885;28;19920;-66
2023/03/31 04:07:25;;;;;;;;;;;;;;;6.21;92.27;99089.31;5094130;28;19920;-67
2023/03/31 04:09:54;;;;;;;;;;;;;;;6.25;92.22;99091.03;5093724;28;19923;-66
2023/03/31 04:12:22;;;;;;;;;;;;;;;6.30;91.92;99086.84;5094685;28;20007;-66
2023/03/31 04:14:51;;;;;;;;;;;;;;;6.33;92.19;99079.28;5094098;28;20034;-66
2023/03/31 04:17:31;;;;;;;;;;;;;;;6.38;91.70;99085.19;5093748;28;19927;-66
2023/03/31 04:20:04;;;;;;;;;;;;;;;6.34;91.66;99075.88;5093687;28;19977;-67
2023/03/31 04:22:39;;;;;;;;;;;;;;;6.31;91.85;99075.84;5093830;28;19969;-67
2023/03/31 04:25:13;;;;;;;;;;;;;;;6.35;92.05;99082.66;5093824;28;19926;-66
2023/03/31 04:27:45;;;;;;;;;;;;;;;6.36;91.98;99080.97;5093867;28;20007;-66
2023/03/31 04:30:21;;;;;;;;;;;;;;;6.33;92.36;99079.28;5093497;28;19950;-67
2023/03/31 04:32:52;;;;;;;;;;;;;;;6.36;92.40;99069.13;5093782;28;20011;-66
2023/03/31 04:35:24;;;;;;;;;;;;;;;6.33;92.74;99066.59;5094142;28;19920;-66
2023/03/31 04:37:57;;;;;;;;;;;;;;;6.33;92.43;99073.34;5095837;28;19955;-67
2023/03/31 04:40:26;;;;;;;;;;;;;;;6.30;92.69;99068.25;5097635;28;19920;-67
2023/03/31 04:42:55;;;;;;;;;;;;;;;6.28;92.59;99065.72;5096642;28;20321;-67
2023/03/31 04:45:23;;;;;;;;;;;;;;;6.31;92.97;99065.72;5097550;28;20267;-67
2023/03/31 04:47:52;;;;;;;;;;;;;;;6.39;93.58;99053.09;5097459;28;19920;-67
2023/03/31 04:50:22;;;;;;;;;;;;;;;6.43;93.34;99050.59;5097582;28;20373;-66
2023/03/31 04:52:50;;;;;;;;;;;;;;;6.38;93.79;99046.34;5097508;28;20370;-67
2023/03/31 04:55:19;;;;;;;;;;;;;;;6.31;92.97;99040.38;5097394;28;19920;-66
2023/03/31 04:57:47;;;;;;;;;;;;;;;6.26;93.56;99037.00;5097300;28;19966;-66
2023/03/31 05:00:16;;;;;;;;;;;;;;;6.23;93.72;99031.91;5097222;28;19967;-66
2023/03/31 05:02:45;;;;;;;;;;;;;;;6.21;93.64;99038.66;5097195;28;20382;-66
2023/03/31 05:05:13;;;;;;;;;;;;;;;6.17;93.41;99042.00;5097156;28;19955;-66
2023/03/31 05:07:45;;;;;;;;;;;;;;;6.22;94.07;99035.28;5097091;28;19920;-66
2023/03/31 05:10:13;;;;;;;;;;;;;;;6.30;93.76;99033.63;5097097;28;20370;-66
2023/03/31 05:12:41;;;;;;;;;;;;;;;6.42;93.95;99033.72;5096964;28;19919;-66
2023/03/31 05:15:10;;;;;;;;;;;;;;;6.49;94.58;99043.03;5096949;28;19945;-67
2023/03/31 05:17:39;;;;;;;;;;;;;;;6.54;94.15;99038.84;5096960;28;20413;-66
2023/03/31 05:20:08;;;;;;;;;;;;;;;6.61;94.72;99040.56;5097055;28;19920;-66
2023/03/31 05:22:37;;;;;;;;;;;;;;;6.64;94.71;99038.03;5097092;28;19929;-66
2023/03/31 05:25:09;;;;;;;;;;;;;;;6.73;94.64;99034.69;5096805;28;19920;-67
2023/03/31 05:27:37;;;;;;;;;;;;;;;6.72;94.67;99031.31;5096766;28;19920;-66
2023/03/31 05:30:07;;;;;;;;;;;;;;;6.70;94.47;99040.59;5096678;28;19920;-66
2023/03/31 05:32:35;;;;;;;;;;;;;;;6.74;94.91;99049.06;5096850;28;19973;-66
2023/03/31 05:35:04;;;;;;;;;;;;;;;6.81;94.67;99047.41;5096918;28;19920;-66
2023/03/31 05:37:33;;;;;;;;;;;;;;;6.80;94.50;99040.63;5096605;28;19924;-66
2023/03/31 05:40:03;;;;;;;;;;;;;;;6.82;95.11;99044.00;5096520;28;20445;-66
2023/03/31 05:42:33;;;;;;;;;;;;;;;6.90;94.59;99037.28;5096846;28;20471;-66
2023/03/31 05:45:02;;;;;;;;;;;;;;;6.96;94.58;99032.25;5096739;28;19919;-66
2023/03/31 05:47:31;;;;;;;;;;;;;;;6.94;94.88;99023.75;5096388;28;19927;-66
2023/03/31 05:49:59;;;;;;;;;;;;;;;6.83;95.02;99030.50;5096222;28;19920;-67
2023/03/31 05:52:28;;;;;;;;;;;;;;;6.74;94.67;99032.16;5096240;28;19932;-66
2023/03/31 05:54:56;;;;;;;;;;;;;;;6.75;94.94;99033.84;5097356;28;19930;-66
2023/03/31 05:57:25;;;;;;;;;;;;;;;6.84;94.92;99032.22;5096189;28;19920;-67
2023/03/31 05:59:54;;;;;;;;;;;;;;;6.90;95.06;99032.22;5096077;28;19927;-66
2023/03/31 06:02:23;;;;;;;;;;;;;;;6.97;95.02;99033.94;5096123;28;19920;-66
2023/03/31 06:04:52;;;;;;;;;;;;;;;6.98;94.88;99030.56;5095911;28;19920;-66
2023/03/31 06:07:21;;;;;;;;;;;;;;;6.90;94.63;99024.59;5096173;28;19920;-66
2023/03/31 06:09:49;;;;;;;;;;;;;;;6.83;94.90;99020.34;5095843;28;19926;-66
2023/03/31 06:12:18;;;;;;;;;;;;;;;6.87;95.08;99024.59;5095720;28;19945;-66
2023/03/31 06:14:46;;;;;;;;;;;;;;;6.90;94.85;99017.00;5095818;28;19930;-67
2023/03/31 06:17:16;;;;;;;;;;;;;;;6.95;94.64;99025.47;5095684;28;19927;-66
2023/03/31 06:19:44;;;;;;;;;;;;;;;7.00;95.23;99023.78;5095926;28;20014;-66
2023/03/31 06:22:13;;;;;;;;;;;;;;;7.03;95.10;99018.75;5095698;28;19920;-66
2023/03/31 06:24:41;;;;;;;;;;;;;;;7.00;95.47;99019.56;5095574;28;19920;-66
2023/03/31 06:27:10;;;;;;;;;;;;;;;7.08;95.68;99027.22;5096153;28;19946;-66
2023/03/31 06:29:38;;;;;;;;;;;;;;;7.08;95.55;99017.06;5095375;28;19943;-67
2023/03/31 06:32:06;;;;;;;;;;;;;;;7.13;94.93;99015.34;5095597;28;20019;-67
2023/03/31 06:34:36;;;;;;;;;;;;;;;7.19;95.52;99021.31;5103881;28;20374;-67
2023/03/31 06:37:05;;;;;;;;;;;;;;;7.27;95.25;99013.72;5102100;27;19935;-65
2023/03/31 06:39:33;;;;;;;;;;;;;;;7.27;95.54;99009.47;5095403;28;20320;-66
2023/03/31 06:42:02;;;;;;;;;;;;;;;7.30;95.20;99008.63;5095144;28;20006;-65
2023/03/31 06:44:33;;;;;;;;;;;;;;;7.31;95.05;99012.88;5095547;28;19974;-65
2023/03/31 06:47:01;;;;;;;;;;;;;;;7.42;95.45;99008.63;5095175;28;19963;-66
2023/03/31 06:49:29;;;;;;;;;;;;;;;7.37;95.19;98995.09;5095361;28;19920;-65
2023/03/31 06:52:00;;;;;;;;;;;;;;;7.29;95.22;98996.78;5095071;28;19927;-63
2023/03/31 06:54:28;;;;;;;;;;;;;;;7.34;95.64;99000.19;5097218;28;19920;-64
2023/03/31 06:56:56;;;;;;;;;;;;;;;7.46;95.49;99000.19;5109665;28;20027;-65
2023/03/31 06:59:25;;;;;;;;;;;;;;;7.50;95.60;98996.81;5114612;28;19919;-65
2023/03/31 07:01:53;;;;;;;;;;;;;;;7.56;95.65;98996.78;5110984;28;20006;-65
2023/03/31 07:04:22;;;;;;;;;;;;;;;7.63;94.80;98993.41;5108841;28;19923;-64
2023/03/31 07:06:50;;;;;;;;;;;;;;;7.65;95.31;98981.59;5115131;28;19969;-66
2023/03/31 07:09:22;;;;;;;;;;;;;;;7.76;95.77;98990.03;5115050;28;19920;-66
2023/03/31 07:11:51;;;;;;;;;;;;;;;7.82;95.38;98984.94;5115068;28;19919;-66
2023/03/31 07:14:19;;;;;;;;;;;;;;;7.83;95.63;98985.78;5115297;28;20352;-66
2023/03/31 07:16:49;;;;;;;;;;;;;;;7.80;95.04;98981.56;5115322;28;19919;-66
2023/03/31 07:19:18;;;;;;;;;;;;;;;7.81;94.58;98978.19;5105843;28;19927;-66
2023/03/31 07:21:46;;;;;;;;;;;;;;;7.92;94.67;98980.69;5094768;28;19965;-66
2023/03/31 07:24:15;;;;;;;;;;;;;;;7.99;95.07;98983.22;5094739;28;19920;-66
2023/03/31 07:26:45;;;;;;;;;;;;;;;8.07;95.19;98981.53;5094729;28;19919;-65
2023/03/31 07:29:13;;;;;;;;;;;;;;;8.13;95.35;98974.72;5094149;28;20381;-65
2023/03/31 07:31:42;;;;;;;;;;;;;;;8.07;94.63;98976.44;5094425;28;20019;-66
2023/03/31 07:34:10;;;;;;;;;;;;;;;8.11;94.60;98972.19;5094212;28;20015;-65
2023/03/31 07:36:40;;;;;;;;;;;;;;;8.10;93.98;98973.91;5094344;28;19927;-66
2023/03/31 07:39:08;;;;;;;;;;;;;;;8.18;94.32;98965.41;5103385;28;19919;-66
2023/03/31 07:41:36;;;;;;;;;;;;;;;8.30;94.38;98962.84;5094475;28;19924;-66
2023/03/31 07:44:06;;;;;;;;;;;;;;;8.39;94.28;98957.75;5099333;28;20054;-66
2023/03/31 07:46:35;;;;;;;;;;;;;;;8.46;94.59;98946.69;5114529;28;20002;-66
2023/03/31 07:49:03;;;;;;;;;;;;;;;8.48;93.70;98939.91;5107126;28;19963;-66
2023/03/31 07:51:32;;;;;;;;;;;;;;;8.47;94.23;98940.75;5094002;28;19920;-66
2023/03/31 07:54:00;;;;;;;;;;;;;;;8.50;93.96;98930.56;5094459;28;19966;-65
2023/03/31 07:56:28;;;;;;;;;;;;;;;8.49;93.75;98928.88;5093826;28;19962;-66
2023/03/31 07:58:57;;;;;;;;;;;;;;;8.53;93.41;98920.38;5093949;28;20027;-66
2023/03/31 08:01:27;;;;;;;;;;;;;;;8.61;94.21;98914.38;5094242;28;19919;-66
2023/03/31 08:03:56;;;;;;;;;;;;;;;8.70;93.83;98913.50;5093954;28;20382;-66
2023/03/31 08:06:25;;;;;;;;;;;;;;;8.83;93.49;98899.84;5094204;28;20326;-66
2023/03/31 08:08:54;;;;;;;;;;;;;;;9.03;94.08;98895.47;5093788;28;20370;-66
2023/03/31 08:11:23;;;;;;;;;;;;;;;9.08;93.24;98893.75;5094089;28;19920;-66
2023/03/31 08:13:52;;;;;;;;;;;;;;;9.17;93.76;98888.56;5097856;28;19966;-66
2023/03/31 08:16:20;;;;;;;;;;;;;;;9.32;93.56;98890.16;5097993;28;19957;-66
2023/03/31 08:18:50;;;;;;;;;;;;;;;9.48;92.71;98890.88;5097908;28;19927;-66
2023/03/31 08:21:19;;;;;;;;;;;;;;;9.73;92.96;98887.22;5098024;28;19924;-66
2023/03/31 08:23:53;;;;;;;;;;;;;;;10.03;92.84;98890.28;5099432;28;19920;-66
2023/03/31 08:26:23;;;;;;;;;;;;;;;10.37;92.96;98893.31;5098097;28;20439;-67
2023/03/31 08:28:51;;;;;;;;;;;;;;;10.45;92.38;98888.97;5097472;28;20003;-67
2023/03/31 08:31:22;;;;;;;;;;;;;;;10.51;91.81;98878.66;5097374;28;20422;-66
2023/03/31 08:33:56;;;;;;;;;;;;;;;10.47;90.72;98873.63;5099028;28;19920;-66
2023/03/31 08:36:24;;;;;;;;;;;;;;;10.52;90.94;98872.69;5097892;28;19920;-66
2023/03/31 08:38:53;;;;;;;;;;;;;;;10.67;89.88;98862.28;5097743;28;20287;-67
2023/03/31 08:41:34;;;;;;;;;;;;;;;10.97;89.57;98860.13;5097631;28;19920;-67
2023/03/31 08:44:05;;;;;;;;;;;;;;;11.16;88.72;98852.16;5102041;28;19919;-68
2023/03/31 08:46:35;;;;;;;;;;;;;;;11.49;88.57;98845.63;5100475;28;19965;-69
2023/03/31 08:49:06;;;;;;;;;;;;;;;11.42;87.91;98852.56;5103695;28;19920;-67
2023/03/31 08:51:37;;;;;;;;;;;;;;;11.46;87.29;98850.78;5097508;28;19951;-67
2023/03/31 08:54:06;;;;;;;;;;;;;;;11.56;86.83;98837.00;5096196;28;19926;-67
2023/03/31 08:56:38;;;;;;;;;;;;;;;11.50;85.99;98839.66;5097345;28;19942;-68
2023/03/31 08:59:16;;;;;;;;;;;;;;;11.58;85.67;98832.69;5097384;28;19920;-67
2023/03/31 09:01:47;;;;;;;;;;;;;;;11.75;85.37;98828.16;5103995;28;19920;-67
2023/03/31 09:04:43;;;;;;;;;;;;;;;12.06;85.15;98829.22;5112297;28;19996;-68
2023/03/31 09:07:16;;;;;;;;;;;;;;;12.23;85.04;98830.56;5113435;28;20303;-67
2023/03/31 09:09:50;;;;;;;;;;;;;;;12.25;84.24;98821.16;5102342;28;19919;-67
2023/03/31 09:12:21;;;;;;;;;;;;;;;12.19;83.39;98813.63;5096906;28;19923;-66
2023/03/31 09:14:54;;;;;;;;;;;;;;;12.10;82.79;98815.47;5104950;28;20388;-66
2023/03/31 09:17:24;;;;;;;;;;;;;;;12.07;82.43;98807.88;5096981;28;19923;-66
2023/03/31 09:19:57;;;;;;;;;;;;;;;12.13;81.87;98813.72;5096759;28;19920;-66
2023/03/31 09:22:29;;;;;;;;;;;;;;;12.12;81.85;98801.84;5101926;28;19927;-66
2023/03/31 09:25:01;;;;;;;;;;;;;;;12.09;81.14;98798.44;5106909;28;19977;-66
2023/03/31 09:27:33;;;;;;;;;;;;;;;12.17;81.08;98794.88;5108640;28;20332;-67
2023/03/31 09:30:04;;;;;;;;;;;;;;;12.27;80.91;98792.09;5099986;28;20329;-66
2023/03/31 09:32:33;;;;;;;;;;;;;;;12.38;81.22;98794.44;5096628;28;19920;-67
2023/03/31 09:35:14;;;;;;;;;;;;;;;12.45;80.92;98790.88;5096467;28;19920;-67
2023/03/31 09:37:42;;;;;;;;;;;;;;;12.42;81.12;98780.69;5096618;28;20370;-67
2023/03/31 09:40:16;;;;;;;;;;;;;;;12.44;81.42;98768.69;5096422;28;20042;-67
2023/03/31 09:42:46;;;;;;;;;;;;;;;12.42;81.56;98766.19;5096754;28;20033;-67
2023/03/31 09:45:15;;;;;;;;;;;;;;;12.42;81.39;98758.50;5096352;28;19959;-67
2023/03/31 09:47:46;;;;;;;;;;;;;;;12.44;81.53;98764.44;5096324;28;19973;-67
2023/03/31 09:50:16;;;;;;;;;;;;;;;12.37;81.36;98762.03;5096617;28;19927;-67
2023/03/31 09:52:46;;;;;;;;;;;;;;;12.42;81.49;98749.97;5096573;28;19920;-66
2023/03/31 09:55:20;;;;;;;;;;;;;;;12.48;80.87;98754.94;5095112;28;20377;-67
2023/03/31 09:58:07;;;;;;;;;;;;;;;12.61;80.88;98751.22;5096168;28;19920;-67
2023/03/31 10:00:36;;;;;;;;;;;;;;;12.82;80.85;98745.59;5096140;28;19924;-67
2023/03/31 10:03:06;;;;;;;;;;;;;;;13.00;80.74;98747.69;5096224;28;20293;-67
2023/03/31 10:05:38;;;;;;;;;;;;;;;13.13;81.04;98749.09;5095931;28;19952;-67
2023/03/31 10:08:19;;;;;;;;;;;;;;;13.25;80.14;98751.31;5096343;28;19920;-68
2023/03/31 10:10:49;;;;;;;;;;;;;;;13.29;79.79;98749.53;5096067;28;19924;-67
2023/03/31 10:13:20;;;;;;;;;;;;;;;13.36;79.82;98748.50;5100148;28;19926;-66
2023/03/31 10:15:52;;;;;;;;;;;;;;;13.47;79.45;98740.50;5111175;28;20400;-67
2023/03/31 10:18:21;;;;;;;;;;;;;;;13.56;79.12;98735.94;5116559;28;19930;-67
2023/03/31 10:20:52;;;;;;;;;;;;;;;13.44;78.59;98729.44;5115983;28;19924;-67
2023/03/31 10:23:24;;;;;;;;;;;;;;;13.47;78.40;98736.22;5116040;28;20002;-67
2023/03/31 10:25:53;;;;;;;;;;;;;;;13.41;78.29;98732.09;5105308;28;19926;-66
2023/03/31 10:28:22;;;;;;;;;;;;;;;13.33;78.16;98726.34;5104169;28;19920;-66
2023/03/31 10:30:53;;;;;;;;;;;;;;;13.38;78.51;98727.06;5111118;28;20335;-66
2023/03/31 10:33:24;;;;;;;;;;;;;;;13.27;78.55;98721.38;5098970;28;20338;-67
2023/03/31 10:35:57;;;;;;;;;;;;;;;13.13;78.33;98723.47;5094891;28;19920;-66
2023/03/31 10:38:27;;;;;;;;;;;;;;;13.10;78.66;98720.97;5095692;28;20328;-67
2023/03/31 10:40:57;;;;;;;;;;;;;;;13.05;79.08;98722.78;5103598;28;19919;-68
2023/03/31 10:43:27;;;;;;;;;;;;;;;12.92;79.31;98713.75;5102287;28;19959;-66
2023/03/31 10:45:57;;;;;;;;;;;;;;;12.84;79.80;98697.72;5095105;28;19924;-67
2023/03/31 10:48:27;;;;;;;;;;;;;;;12.82;79.98;98694.38;5095236;28;20015;-67
2023/03/31 10:50:59;;;;;;;;;;;;;;;12.85;80.04;98689.19;5100496;28;19946;-68
2023/03/31 10:53:27;;;;;;;;;;;;;;;12.82;80.34;98688.41;5095030;28;19920;-67
2023/03/31 10:56:09;;;;;;;;;;;;;;;12.86;80.57;98680.59;5095302;28;19989;-67
2023/03/31 10:58:43;;;;;;;;;;;;;;;12.91;80.61;98677.94;5095036;28;19928;-66
2023/03/31 11:01:35;;;;;;;;;;;;;;;12.94;81.04;98672.72;5095132;28;19920;-67
2023/03/31 11:04:15;;;;;;;;;;;;;;;13.01;80.89;98667.41;5095474;28;20322;-66
2023/03/31 11:06:52;;;;;;;;;;;;;;;13.12;80.82;98667.16;5097402;28;19974;-68
2023/03/31 11:09:35;;;;;;;;;;;;;;;13.26;80.83;98670.19;5103736;28;20423;-66
2023/03/31 11:12:10;;;;;;;;;;;;;;;13.42;81.39;98659.44;5094685;28;20011;-67
2023/03/31 11:14:43;;;;;;;;;;;;;;;13.58;81.22;98646.19;5098813;28;20429;-66
2023/03/31 11:17:17;;;;;;;;;;;;;;;13.68;81.13;98652.72;5103367;28;19927;-66
2023/03/31 11:19:52;;;;;;;;;;;;;;;13.76;80.52;98650.75;5115068;28;19924;-68
2023/03/31 11:22:26;;;;;;;;;;;;;;;13.85;80.36;98651.34;5115254;28;20270;-67
2023/03/31 11:25:05;;;;;;;;;;;;;;;13.96;80.02;98638.19;5114891;28;20430;-67
2023/03/31 11:27:48;;;;;;;;;;;;;;;14.07;79.79;98625.84;5114800;28;19962;-68
2023/03/31 11:30:20;;;;;;;;;;;;;;;14.16;79.23;98622.16;5114698;28;20265;-66
2023/03/31 11:32:56;;;;;;;;;;;;;;;14.24;78.51;98625.31;5114705;28;20333;-67
2023/03/31 11:35:42;;;;;;;;;;;;;;;14.18;78.04;98613.50;5115159;28;19920;-68
2023/03/31 11:38:29;;;;;;;;;;;;;;;14.24;78.05;98610.75;5114668;28;19924;-66
2023/03/31 11:41:00;;;;;;;;;;;;;;;14.29;77.67;98600.34;5114652;28;20014;-67
2023/03/31 11:43:33;;;;;;;;;;;;;;;14.35;77.84;98601.00;5114520;28;19926;-68
2023/03/31 11:46:04;;;;;;;;;;;;;;;14.42;78.00;98602.47;5114281;28;19920;-67
2023/03/31 11:48:37;;;;;;;;;;;;;;;14.47;77.77;98598.03;5114526;28;19919;-66
2023/03/31 11:51:10;;;;;;;;;;;;;;;14.44;78.04;98595.56;5108289;28;20431;-67
2023/03/31 11:53:42;;;;;;;;;;;;;;;14.50;77.75;98585.09;5098146;28;19985;-66
2023/03/31 11:56:11;;;;;;;;;;;;;;;14.51;77.74;98586.78;5101871;28;19919;-68
2023/03/31 11:58:42;;;;;;;;;;;;;;;14.47;77.31;98580.03;5109894;28;19945;-65
2023/03/31 12:01:17;;;;;;;;;;;;;;;14.41;77.13;98569.16;5114544;28;20363;-65
2023/03/31 12:03:51;;;;;;;;;;;;;;;14.36;76.47;98566.75;5114042;28;19926;-67
2023/03/31 12:06:22;;;;;;;;;;;;;;;14.33;76.38;98556.56;5114353;28;19923;-67
2023/03/31 12:08:57;;;;;;;;;;;;;;;14.33;76.08;98550.59;5101044;28;19920;-67
2023/03/31 12:11:29;;;;;;;;;;;;;;;14.35;75.65;98547.09;5093992;28;19920;-66
2023/03/31 12:14:02;;;;;;;;;;;;;;;14.39;75.44;98535.00;5093723;28;19924;-66
2023/03/31 12:16:35;;;;;;;;;;;;;;;14.47;74.73;98527.84;5111361;28;20132;-67
2023/03/31 12:19:08;;;;;;;;;;;;;;;14.55;74.51;98523.31;5108271;28;19920;-68
2023/03/31 12:21:39;;;;;;;;;;;;;;;14.61;74.65;98515.41;5094067;28;19927;-67
2023/03/31 12:24:12;;;;;;;;;;;;;;;14.66;74.80;98514.31;5093904;28;19920;-67
2023/03/31 12:26:47;;;;;;;;;;;;;;;14.70;74.55;98513.34;5093729;28;19970;-67
2023/03/31 12:29:22;;;;;;;;;;;;;;;14.74;74.66;98516.63;5093507;28;19959;-68
2023/03/31 12:31:52;;;;;;;;;;;;;;;14.78;73.63;98519.00;5093963;28;19981;-67
2023/03/31 12:34:23;;;;;;;;;;;;;;;14.94;73.12;98503.06;5093690;28;20002;-67
2023/03/31 12:37:00;;;;;;;;;;;;;;;15.11;72.30;98500.69;5093620;28;19924;-66
2023/03/31 12:39:39;;;;;;;;;;;;;;;15.32;71.77;98489.59;5093659;28;19920;-66
2023/03/31 12:42:22;;;;;;;;;;;;;;;15.81;70.78;98484.16;5093603;28;19974;-68
2023/03/31 12:44:57;;;;;;;;;;;;;;;16.10;69.79;98470.94;5092298;28;20026;-67
2023/03/31 12:47:40;;;;;;;;;;;;;;;16.32;68.74;98454.56;5093697;28;19920;-68
2023/03/31 12:50:20;;;;;;;;;;;;;;;16.62;67.66;98424.94;5093087;28;19920;-69
2023/03/31 12:52:54;;;;;;;;;;;;;;;16.80;65.70;98395.72;5112850;28;19926;-68
2023/03/31 12:55:41;;;;;;;;;;;;;;;16.90;64.88;98378.94;5113686;28;20034;-68
2023/03/31 12:58:21;;;;;;;;;;;;;;;16.92;64.30;98374.53;5114724;28;19926;-67
2023/03/31 13:01:05;;;;;;;;;;;;;;;16.83;64.18;98366.41;5117700;28;19919;-68
2023/03/31 13:03:43;;;;;;;;;;;;;;;16.60;63.83;98365.72;5117713;28;20356;-67
2023/03/31 13:06:32;;;;;;;;;;;;;;;16.48;64.14;98355.13;5117965;28;19919;-70
2023/03/31 13:09:03;;;;;;;;;;;;;;;16.29;64.72;98356.88;5117582;28;19927;-66
2023/03/31 13:11:38;;;;;;;;;;;;;;;16.20;65.05;98349.53;5117539;27;19919;-67
2023/03/31 13:14:12;;;;;;;;;;;;;;;16.16;65.29;98335.16;5117728;28;20310;-66
2023/03/31 13:16:42;;;;;;;;;;;;;;;16.10;65.32;98331.94;5117749;28;20423;-66